createdAt,value
2022-11-10T00:02:12.507Z,91.34
2022-11-10T00:04:58.431Z,91.79
2022-11-10T00:07:44.514Z,91.67
2022-11-10T00:10:30.923Z,90.94
2022-11-10T00:13:17.150Z,89.93
2022-11-10T00:16:24.657Z,89.18
2022-11-10T00:19:11.031Z,90.16
2022-11-10T00:21:57.875Z,90.71
2022-11-10T00:24:44.913Z,90.19
2022-11-10T00:27:33.556Z,91.32
2022-11-10T00:30:19.357Z,91.53
2022-11-10T00:33:05.745Z,92.28
2022-11-10T00:35:54.304Z,93.27
2022-11-10T00:38:40.271Z,91.13
2022-11-10T00:41:26.315Z,89.21
2022-11-10T00:44:12.257Z,89.38
2022-11-10T00:46:58.311Z,91.54
2022-11-10T00:49:44.325Z,92.09
2022-11-10T00:52:30.216Z,91.60
2022-11-10T00:55:16.582Z,90.43
2022-11-10T00:58:02.378Z,89.98
2022-11-10T01:00:48.716Z,91.50
2022-11-10T01:03:35.422Z,91.40
2022-11-10T01:06:22.571Z,91.52
2022-11-10T01:09:08.269Z,92.47
2022-11-10T01:11:54.294Z,92.79
2022-11-10T01:14:40.081Z,92.93
2022-11-10T01:17:26.064Z,92.69
2022-11-10T01:20:12.527Z,92.88
2022-11-10T01:22:58.594Z,92.83
2022-11-10T01:25:45.279Z,92.78
2022-11-10T01:28:33.087Z,93.77
2022-11-10T01:31:22.085Z,93.25
2022-11-10T01:34:09.142Z,92.86
2022-11-10T01:36:55.268Z,92.76
2022-11-10T01:39:41.476Z,93.01
2022-11-10T01:42:43.643Z,93.76
2022-11-10T01:46:09.095Z,93.53
2022-11-10T01:49:02.344Z,94.16
2022-11-10T01:52:01.152Z,93.97
2022-11-10T01:54:49.893Z,94.34
2022-11-10T01:57:37.882Z,93.38
2022-11-10T02:00:24.411Z,93.80
2022-11-10T02:03:31.833Z,94.68
2022-11-10T02:06:20.282Z,95.01
2022-11-10T02:09:06.477Z,95.25
2022-11-10T02:11:56.539Z,96.25
2022-11-10T02:14:43.902Z,96.54
2022-11-10T02:17:30.044Z,96.29
2022-11-10T02:20:20.394Z,96.43
2022-11-10T02:23:33.646Z,95.48
2022-11-10T02:26:30.965Z,95.58
2022-11-10T02:29:17.050Z,95.21
2022-11-10T02:32:03.244Z,95.56
2022-11-10T02:34:49.378Z,96.44
2022-11-10T02:37:35.458Z,97.43
2022-11-10T02:40:21.534Z,97.10
2022-11-10T02:43:12.982Z,98.58
2022-11-10T02:45:59.344Z,98.64
2022-11-10T02:48:45.516Z,98.17
2022-11-10T02:51:31.839Z,98.10
2022-11-10T02:54:18.151Z,98.26
2022-11-10T02:57:03.909Z,98.48
2022-11-10T02:59:49.935Z,99.21
2022-11-10T03:02:36.062Z,99.47
2022-11-10T03:05:22.370Z,98.14
2022-11-10T03:08:08.581Z,98.67
2022-11-10T03:10:56.684Z,98.44
2022-11-10T03:14:00.335Z,97.88
2022-11-10T03:16:47.218Z,94.87
2022-11-10T03:19:33.233Z,92.29
2022-11-10T03:22:19.287Z,92.67
2022-11-10T03:25:06.596Z,94.32
2022-11-10T03:27:52.679Z,93.91
2022-11-10T03:30:39.495Z,93.05
2022-11-10T03:33:26.502Z,93.93
2022-11-10T03:36:12.301Z,93.84
2022-11-10T03:38:57.991Z,93.80
2022-11-10T03:41:43.906Z,93.69
2022-11-10T03:44:29.956Z,93.15
2022-11-10T03:47:16.192Z,91.81
2022-11-10T03:50:02.414Z,91.71
2022-11-10T03:52:49.008Z,93.54
2022-11-10T03:55:35.018Z,93.92
2022-11-10T03:58:21.043Z,92.94
2022-11-10T04:01:07.365Z,94.39
2022-11-10T04:03:53.423Z,94.12
2022-11-10T04:06:57.970Z,92.58
2022-11-10T04:09:43.969Z,93.09
2022-11-10T04:12:53.504Z,91.62
2022-11-10T04:15:45.139Z,91.60
2022-11-10T04:18:31.269Z,89.92
2022-11-10T04:21:17.650Z,87.72
2022-11-10T04:24:03.757Z,87.43
2022-11-10T04:26:50.244Z,88.34
2022-11-10T04:29:36.477Z,88.79
2022-11-10T04:32:22.307Z,90.95
2022-11-10T04:35:08.828Z,93.33
2022-11-10T04:37:55.318Z,94.43
2022-11-10T04:40:40.898Z,95.23
2022-11-10T04:43:27.287Z,95.66
2022-11-10T04:46:36.310Z,97.23
2022-11-10T04:49:22.120Z,97.03
2022-11-10T04:52:08.195Z,97.84
2022-11-10T04:54:54.190Z,96.49
2022-11-10T04:57:40.643Z,96.72
2022-11-10T05:00:27.178Z,97.07
2022-11-10T05:03:14.895Z,98.65
2022-11-10T05:06:01.058Z,98.21
2022-11-10T05:08:47.659Z,97.99
2022-11-10T05:11:33.534Z,98.77
2022-11-10T05:14:19.401Z,98.72
2022-11-10T05:17:05.433Z,97.98
2022-11-10T05:19:51.747Z,98.19
2022-11-10T05:22:37.704Z,99.38
2022-11-10T05:25:23.411Z,98.12
2022-11-10T05:28:12.133Z,98.19
2022-11-10T05:30:58.584Z,100.00
2022-11-10T05:33:44.649Z,99.99
2022-11-10T05:36:30.650Z,98.29
2022-11-10T05:39:16.478Z,100.00
2022-11-10T05:42:02.590Z,100.00
2022-11-10T05:44:48.376Z,100.00
2022-11-10T05:47:40.284Z,100.00
2022-11-10T05:50:26.836Z,100.00
2022-11-10T05:53:13.299Z,100.00
2022-11-10T05:55:59.095Z,100.00
2022-11-10T05:58:44.862Z,100.00
2022-11-10T06:01:30.686Z,100.00
2022-11-10T06:04:16.370Z,100.00
2022-11-10T06:07:02.796Z,100.00
2022-11-10T06:09:49.200Z,100.00
2022-11-10T06:12:36.666Z,100.00
2022-11-10T06:15:23.669Z,100.00
2022-11-10T06:18:09.410Z,100.00
2022-11-10T06:20:55.183Z,100.00
2022-11-10T06:23:40.934Z,100.00
2022-11-10T06:26:26.572Z,100.00
2022-11-10T06:29:12.568Z,100.00
2022-11-10T06:31:58.616Z,100.00
2022-11-10T06:34:44.822Z,100.00
2022-11-10T06:37:30.817Z,100.00
2022-11-10T06:40:17.009Z,100.00
2022-11-10T06:43:03.472Z,100.00
2022-11-10T06:45:49.888Z,100.00
2022-11-10T06:48:35.746Z,100.00
2022-11-10T06:51:21.665Z,100.00
2022-11-10T06:54:07.997Z,100.00
2022-11-10T06:56:53.726Z,100.00
2022-11-10T06:59:39.616Z,100.00
2022-11-10T07:02:25.420Z,100.00
2022-11-10T07:05:11.028Z,100.00
2022-11-10T07:08:01.251Z,100.00
2022-11-10T07:10:54.533Z,100.00
2022-11-10T07:13:40.684Z,100.00
2022-11-10T07:16:26.878Z,100.00
2022-11-10T07:19:12.922Z,100.00
2022-11-10T07:21:59.116Z,100.00
2022-11-10T07:24:44.927Z,100.00
2022-11-10T07:27:30.979Z,100.00
2022-11-10T07:30:17.072Z,100.00
2022-11-10T07:33:14.749Z,100.00
2022-11-10T07:36:03.982Z,100.00
2022-11-10T07:38:49.870Z,100.00
2022-11-10T07:41:35.858Z,100.00
2022-11-10T07:44:22.156Z,100.00
2022-11-10T07:47:07.964Z,100.00
2022-11-10T07:49:53.743Z,100.00
2022-11-10T07:52:40.384Z,100.00
2022-11-10T07:55:26.125Z,100.00
2022-11-10T07:58:15.819Z,100.00
2022-11-10T08:01:02.930Z,100.00
2022-11-10T08:03:48.899Z,100.00
2022-11-10T08:06:36.782Z,100.00
2022-11-10T08:09:23.241Z,100.00
2022-11-10T08:12:09.508Z,100.00
2022-11-10T08:14:55.202Z,100.00
2022-11-10T08:17:41.231Z,100.00
2022-11-10T08:20:27.371Z,100.00
2022-11-10T08:23:14.551Z,100.00
2022-11-10T08:26:01.976Z,100.00
2022-11-10T08:28:47.919Z,100.00
2022-11-10T08:31:34.386Z,99.70
2022-11-10T08:34:22.179Z,97.77
2022-11-10T08:37:08.090Z,94.73
2022-11-10T08:39:54.061Z,94.67
2022-11-10T08:42:40.056Z,96.76
2022-11-10T08:45:27.060Z,96.21
2022-11-10T08:48:19.332Z,94.83
2022-11-10T08:51:05.446Z,91.78
2022-11-10T08:53:51.553Z,85.58
2022-11-10T08:56:37.690Z,85.05
2022-11-10T08:59:23.789Z,83.67
2022-11-10T09:02:11.253Z,85.11
2022-11-10T09:04:57.006Z,82.87
2022-11-10T09:07:47.999Z,85.21
2022-11-10T09:10:38.348Z,80.53
2022-11-10T09:13:29.501Z,81.96
2022-11-10T09:16:16.734Z,80.27
2022-11-10T09:19:02.421Z,80.82
2022-11-10T09:21:48.693Z,80.14
2022-11-10T09:24:35.109Z,79.69
2022-11-10T09:27:21.128Z,74.93
2022-11-10T09:30:11.809Z,77.18
2022-11-10T09:33:02.254Z,74.19
2022-11-10T09:35:48.109Z,74.62
2022-11-10T09:38:35.202Z,73.16
2022-11-10T09:41:21.548Z,73.15
2022-11-10T09:44:39.060Z,72.24
2022-11-10T09:51:00.468Z,70.64
2022-11-10T09:54:03.364Z,69.21
2022-11-10T09:56:51.427Z,68.47
2022-11-10T09:59:37.671Z,67.96
2022-11-10T10:02:34.375Z,65.74
2022-11-10T10:05:53.792Z,66.07
2022-11-10T10:08:57.477Z,64.55
2022-11-10T10:11:52.230Z,66.18
2022-11-10T10:15:08.882Z,65.45
2022-11-10T10:18:30.445Z,64.84
2022-11-10T10:21:28.659Z,61.86
2022-11-10T10:24:22.132Z,61.97
2022-11-10T10:27:29.090Z,58.29
2022-11-10T10:30:21.179Z,61.76
2022-11-10T10:33:14.684Z,60.03
2022-11-10T10:36:10.213Z,59.30
2022-11-10T10:39:13.508Z,61.17
2022-11-10T10:41:59.834Z,61.23
2022-11-10T10:45:17.580Z,60.15
2022-11-10T10:48:03.885Z,58.36
2022-11-10T10:50:50.550Z,54.28
2022-11-10T10:53:47.940Z,53.39
2022-11-10T10:56:34.180Z,53.92
2022-11-10T10:59:23.158Z,53.00
2022-11-10T11:02:27.757Z,51.38
2022-11-10T11:05:20.193Z,51.64
2022-11-10T11:08:06.168Z,51.31
2022-11-10T11:10:51.969Z,49.09
2022-11-10T11:13:37.918Z,48.95
2022-11-10T11:16:23.954Z,49.81
2022-11-10T11:19:10.074Z,49.50
2022-11-10T11:22:46.987Z,47.85
2022-11-10T11:25:42.428Z,45.10
2022-11-10T11:29:09.842Z,44.08
2022-11-10T11:32:38.280Z,42.58
2022-11-10T11:35:43.321Z,41.84
2022-11-10T11:38:37.957Z,41.76
2022-11-10T11:41:41.493Z,42.49
2022-11-10T11:44:52.870Z,42.76
2022-11-10T11:48:15.465Z,42.99
2022-11-10T11:51:26.812Z,42.01
2022-11-10T11:54:34.211Z,40.56
2022-11-10T11:57:34.489Z,41.44
2022-11-10T12:00:24.811Z,41.81
2022-11-10T12:03:48.771Z,41.03
2022-11-10T12:06:40.116Z,40.99
2022-11-10T12:09:38.291Z,42.42
2022-11-10T12:12:30.947Z,42.10
2022-11-10T12:15:44.271Z,41.79
2022-11-10T12:18:37.817Z,41.56
2022-11-10T12:21:37.140Z,40.06
2022-11-10T12:24:59.950Z,40.43
2022-11-10T12:28:01.327Z,39.58
2022-11-10T12:30:50.728Z,39.14
2022-11-10T12:33:54.199Z,39.55
2022-11-10T12:36:40.433Z,38.52
2022-11-10T12:40:26.509Z,38.55
2022-11-10T12:43:58.946Z,39.96
2022-11-10T12:46:51.995Z,38.86
2022-11-10T12:49:45.094Z,38.30
2022-11-10T12:52:48.042Z,39.76
2022-11-10T12:55:44.924Z,38.70
2022-11-10T12:58:30.962Z,38.26
2022-11-10T13:01:20.901Z,38.69
2022-11-10T13:04:07.004Z,36.85
2022-11-10T13:07:10.255Z,37.23
2022-11-10T13:10:26.981Z,36.31
2022-11-10T13:13:15.402Z,36.88
2022-11-10T13:16:01.583Z,37.42
2022-11-10T13:18:50.273Z,37.38
2022-11-10T13:21:51.572Z,36.82
2022-11-10T13:24:42.963Z,37.92
2022-11-10T13:27:48.347Z,37.48
2022-11-10T13:30:46.321Z,36.27
2022-11-10T13:33:39.985Z,36.88
2022-11-10T13:36:47.444Z,37.20
2022-11-10T13:39:34.647Z,37.37
2022-11-10T13:42:24.108Z,37.18
2022-11-10T13:45:31.993Z,37.78
2022-11-10T13:48:51.024Z,37.90
2022-11-10T13:52:06.282Z,38.43
2022-11-10T13:55:45.169Z,38.58
2022-11-10T13:58:37.303Z,38.09
2022-11-10T14:01:30.541Z,37.88
2022-11-10T14:04:45.299Z,38.52
2022-11-10T14:07:39.791Z,38.90
2022-11-10T14:10:51.806Z,38.76
2022-11-10T14:13:51.236Z,38.95
2022-11-10T14:16:43.191Z,40.90
2022-11-10T14:19:46.345Z,41.54
2022-11-10T14:22:42.622Z,41.84
2022-11-10T14:25:37.526Z,42.50
2022-11-10T14:28:27.171Z,43.58
2022-11-10T14:31:25.660Z,44.83
2022-11-10T14:34:17.453Z,45.65
2022-11-10T14:37:24.924Z,46.30
2022-11-10T14:40:19.351Z,47.49
2022-11-10T14:43:05.141Z,48.25
2022-11-10T14:45:55.118Z,48.83
2022-11-10T14:48:41.131Z,49.71
2022-11-10T14:51:30.753Z,50.70
2022-11-10T14:54:26.770Z,51.85
2022-11-10T14:57:18.861Z,53.07
2022-11-10T15:00:16.714Z,53.90
2022-11-10T15:03:04.242Z,54.34
2022-11-10T15:05:50.484Z,55.54
2022-11-10T15:08:37.656Z,56.83
2022-11-10T15:12:12.358Z,56.48
2022-11-10T15:15:00.819Z,58.09
2022-11-10T15:17:51.620Z,58.94
2022-11-10T15:20:41.072Z,60.23
2022-11-10T15:23:33.953Z,60.47
2022-11-10T15:26:27.981Z,61.26
2022-11-10T15:29:23.408Z,62.39
2022-11-10T15:32:20.105Z,63.01
2022-11-10T15:35:23.606Z,63.67
2022-11-10T15:38:14.545Z,64.31
2022-11-10T15:41:11.670Z,64.23
2022-11-10T15:43:58.060Z,65.04
2022-11-10T15:46:44.885Z,64.99
2022-11-10T15:49:38.129Z,65.90
2022-11-10T15:52:24.648Z,66.99
2022-11-10T15:55:24.753Z,67.30
2022-11-10T15:58:21.857Z,67.61
2022-11-10T16:01:15.006Z,67.71
2022-11-10T16:04:01.020Z,67.62
2022-11-10T16:06:50.704Z,68.29
2022-11-10T16:09:38.699Z,69.14
2022-11-10T16:12:24.613Z,69.83
2022-11-10T16:15:22.239Z,70.17
2022-11-10T16:18:30.719Z,71.29
2022-11-10T16:21:22.506Z,72.13
2022-11-10T16:24:29.507Z,72.93
2022-11-10T16:27:16.406Z,73.54
2022-11-10T16:30:02.493Z,74.20
2022-11-10T16:32:49.577Z,74.93
2022-11-10T16:35:36.009Z,75.26
2022-11-10T16:38:30.484Z,75.57
2022-11-10T16:41:19.386Z,75.54
2022-11-10T16:44:15.987Z,75.47
2022-11-10T16:47:23.301Z,75.65
2022-11-10T16:50:59.707Z,74.80
2022-11-10T16:53:46.919Z,74.64
2022-11-10T16:56:32.666Z,74.95
2022-11-10T16:59:18.723Z,76.92
2022-11-10T17:02:04.764Z,77.13
2022-11-10T17:04:51.617Z,77.48
2022-11-10T17:07:39.127Z,77.57
2022-11-10T17:10:25.744Z,77.70
2022-11-10T17:13:12.913Z,77.95
2022-11-10T17:16:35.906Z,78.09
2022-11-10T17:19:28.100Z,78.85
2022-11-10T17:22:41.622Z,79.36
2022-11-10T17:25:31.915Z,79.21
2022-11-10T17:28:23.712Z,79.47
2022-11-10T17:31:09.948Z,79.68
2022-11-10T17:34:00.562Z,79.68
2022-11-10T17:36:46.612Z,79.55
2022-11-10T17:39:51.215Z,79.77
2022-11-10T17:42:41.470Z,80.38
2022-11-10T17:45:31.215Z,81.02
2022-11-10T17:48:23.780Z,81.07
2022-11-10T17:51:22.673Z,81.78
2022-11-10T17:54:16.625Z,81.51
2022-11-10T17:57:04.477Z,82.14
2022-11-10T17:59:50.324Z,82.05
2022-11-10T18:02:37.939Z,81.82
2022-11-10T18:05:23.991Z,82.02
2022-11-10T18:08:15.037Z,82.18
2022-11-10T18:11:02.560Z,81.90
2022-11-10T18:13:49.888Z,83.78
2022-11-10T18:16:35.756Z,85.08
2022-11-10T18:19:22.483Z,84.79
2022-11-10T18:22:13.458Z,83.15
2022-11-10T18:25:02.901Z,83.71
2022-11-10T18:27:50.956Z,82.36
2022-11-10T18:30:38.618Z,77.92
2022-11-10T18:33:24.913Z,79.60
2022-11-10T18:36:14.101Z,80.48
2022-11-10T18:39:00.851Z,75.55
2022-11-10T18:42:08.027Z,77.82
2022-11-10T18:44:56.285Z,80.88
2022-11-10T18:47:44.659Z,83.98
2022-11-10T18:50:34.295Z,84.05
2022-11-10T18:53:22.870Z,84.34
2022-11-10T18:56:14.242Z,84.72
2022-11-10T18:59:00.644Z,86.17
2022-11-10T19:01:48.203Z,85.99
2022-11-10T19:04:34.593Z,86.04
2022-11-10T19:07:20.541Z,87.10
2022-11-10T19:10:10.334Z,86.15
2022-11-10T19:12:57.265Z,86.57
2022-11-10T19:15:47.459Z,86.13
2022-11-10T19:18:35.422Z,86.62
2022-11-10T19:21:29.112Z,87.50
2022-11-10T19:24:25.820Z,85.72
2022-11-10T19:27:14.139Z,85.49
2022-11-10T19:30:00.713Z,86.09
2022-11-10T19:32:46.990Z,86.28
2022-11-10T19:35:33.467Z,85.88
2022-11-10T19:38:21.175Z,85.19
2022-11-10T19:41:23.894Z,85.00
2022-11-10T19:44:31.630Z,85.46
2022-11-10T19:47:21.022Z,86.53
2022-11-10T19:50:07.744Z,86.14
2022-11-10T19:52:54.533Z,86.47
2022-11-10T19:55:42.083Z,86.94
2022-11-10T19:58:28.723Z,87.25
2022-11-10T20:01:17.973Z,87.92
2022-11-10T20:04:08.842Z,90.59
2022-11-10T20:07:16.624Z,90.93
2022-11-10T20:10:07.381Z,91.21
2022-11-10T20:13:01.173Z,91.74
2022-11-10T20:15:47.795Z,91.05
2022-11-10T20:18:54.620Z,90.07
2022-11-10T20:21:40.952Z,89.54
2022-11-10T20:24:30.245Z,90.02
2022-11-10T20:27:27.460Z,90.63
2022-11-10T20:30:20.905Z,91.28
2022-11-10T20:33:10.069Z,92.14
2022-11-10T20:36:03.961Z,91.97
2022-11-10T20:38:52.416Z,91.22
2022-11-10T20:41:38.448Z,91.03
2022-11-10T20:44:24.969Z,91.24
2022-11-10T20:47:11.530Z,90.78
2022-11-10T20:49:58.112Z,89.46
2022-11-10T20:52:45.753Z,90.06
2022-11-10T20:55:52.658Z,90.51
2022-11-10T20:58:39.944Z,91.12
2022-11-10T21:01:26.344Z,91.46
2022-11-10T21:04:12.757Z,91.24
2022-11-10T21:06:59.242Z,91.74
2022-11-10T21:09:45.194Z,92.53
2022-11-10T21:12:49.716Z,92.70
2022-11-10T21:15:39.240Z,92.99
2022-11-10T21:18:43.240Z,92.79
2022-11-10T21:21:34.595Z,92.91
2022-11-10T21:24:21.286Z,92.95
2022-11-10T21:27:08.625Z,91.54
2022-11-10T21:29:58.931Z,90.07
2022-11-10T21:32:45.317Z,90.32
2022-11-10T21:35:36.788Z,88.05
2022-11-10T21:38:23.666Z,86.02
2022-11-10T21:41:09.635Z,86.36
2022-11-10T21:43:57.832Z,86.54
2022-11-10T21:46:44.783Z,88.66
2022-11-10T21:49:30.963Z,89.22
2022-11-10T21:52:16.757Z,91.58
2022-11-10T21:55:02.527Z,92.09
2022-11-10T21:57:49.161Z,92.57
2022-11-10T22:00:34.915Z,91.90
2022-11-10T22:03:21.218Z,90.87
2022-11-10T22:06:17.589Z,89.30
2022-11-10T22:09:04.901Z,87.76
2022-11-10T22:12:09.798Z,89.14
2022-11-10T22:15:15.771Z,89.95
2022-11-10T22:18:20.390Z,90.06
2022-11-10T22:21:09.170Z,91.13
2022-11-10T22:24:13.821Z,91.09
2022-11-10T22:27:03.281Z,92.48
2022-11-10T22:29:49.539Z,93.68
2022-11-10T22:32:35.507Z,96.07
2022-11-10T22:35:40.508Z,98.81
2022-11-10T22:38:26.821Z,98.54
2022-11-10T22:41:33.580Z,98.97
2022-11-10T22:44:24.740Z,97.94
2022-11-10T22:47:11.002Z,97.99
2022-11-10T22:49:56.769Z,98.62
2022-11-10T22:52:43.250Z,97.56
2022-11-10T22:55:29.266Z,98.71
2022-11-10T22:58:15.150Z,97.85
2022-11-10T23:01:06.316Z,98.08
2022-11-10T23:03:52.615Z,99.21
2022-11-10T23:06:38.891Z,98.89
2022-11-10T23:09:25.003Z,97.45
2022-11-10T23:12:10.920Z,96.43
2022-11-10T23:14:56.912Z,94.92
2022-11-10T23:17:43.016Z,93.42
2022-11-10T23:20:29.012Z,93.09
2022-11-10T23:23:15.105Z,92.99
2022-11-10T23:26:07.618Z,92.49
2022-11-10T23:28:54.358Z,93.23
2022-11-10T23:31:40.215Z,92.90
2022-11-10T23:34:26.310Z,94.27
2022-11-10T23:37:12.278Z,92.36
2022-11-10T23:39:59.534Z,92.94
2022-11-10T23:42:46.027Z,93.86
2022-11-10T23:46:00.219Z,94.01
2022-11-10T23:48:39.608Z,94.66
2022-11-10T23:51:26.837Z,96.21
2022-11-10T23:54:12.841Z,96.92
2022-11-10T23:56:58.980Z,99.14
2022-11-10T23:59:45.043Z,100.00
